Latest Weather Observations for Pound Creek

IDV60801

Issued at 9:32 pm EDT Thursday 23 November 2017 (issued every 30 minutes, with the page automatically refreshed every 10 minutes)

About weather observations | Map of weather stations | Latest weather observations for VIC | Other Formats
Station Details ID: 085099 Name: POUND CREEK Lat: -38.63 Lon: 145.81 Height: 3.0 m
Data from the previous 72 hours. | See also: Recent months at Pound Creek
Date/Time
EDT
Temp
°C
App
Temp
°C
Dew
Point
°C
Rel
Hum
%
Delta-T
°C
Wind Press
QNH
hPa
Press
MSL
hPa
Rain since
9am
mm
Dir  Spd
km/h
Gust
km/h
Spd
kts
Gust
kts
23/09:30pm 17.9 19.6 16.2 90 1.0 N 2 6 1 3 1010.1 1010.1 0.0
23/09:00pm 18.6 20.8 16.6 88 1.2 CALM 0 0 0 0 1009.6 1009.6 0.0
23/08:30pm 19.6 20.6 16.4 82 1.9 ESE 6 9 3 5 1009.6 1009.6 0.0
23/08:00pm 21.4 21.5 15.5 69 3.5 SE 9 15 5 8 1009.3 1009.3 0.0
23/07:30pm 23.3 23.7 16.4 65 4.2 ESE 9 17 5 9 1009.3 1009.3 0.0
23/07:00pm 24.4 24.3 13.3 50 6.5 SSE 6 9 3 5 1009.3 1009.3 0.0
23/06:30pm 24.3 24.2 13.8 52 6.2 S 7 9 4 5 1009.1 1009.1 0.0
23/06:00pm 23.6 23.3 14.3 56 5.5 SW 9 11 5 6 1009.3 1009.3 0.0
23/05:30pm 25.0 24.9 15.0 53 6.0 W 9 13 5 7 1009.3 1009.3 0.0
23/05:00pm 25.1 25.0 16.0 57 5.6 SSW 11 15 6 8 1009.2 1009.2 0.0
23/04:30pm 25.0 25.2 16.7 60 5.1 SSW 11 15 6 8 1009.1 1009.1 0.0
23/04:00pm 25.5 25.4 14.9 52 6.4 SSW 9 13 5 7 1009.3 1009.3 0.0
23/03:30pm 25.6 24.7 15.9 55 5.9 SSW 15 17 8 9 1009.1 1009.1 0.0
23/03:00pm 25.3 24.6 15.3 54 6.0 SSW 13 17 7 9 1009.3 1009.3 0.0
23/02:30pm 25.1 24.4 15.4 55 5.9 SSW 13 19 7 10 1009.6 1009.6 0.0
23/02:00pm 25.7 25.8 16.5 56 5.7 SSW 11 17 6 9 1009.9 1009.9 0.0
23/01:30pm 25.3 25.2 17.0 60 5.1 SSW 13 17 7 9 1010.2 1010.2 0.0
23/01:00pm 25.5 25.6 16.6 58 5.5 SSW 11 15 6 8 1010.4 1010.4 0.0
23/12:30pm 25.9 25.9 17.3 59 5.4 SW 13 19 7 10 1010.7 1010.7 0.0
23/12:00pm 27.0 27.7 18.0 58 5.7 WSW 11 17 6 9 1010.9 1010.9 0.0
23/11:30am 26.3 27.5 16.8 56 5.9 WSW 6 15 3 8 1011.1 1011.1 0.0
23/11:00am 25.3 26.9 17.0 60 5.1 ENE 4 9 2 5 1011.3 1011.3 0.0
23/10:30am 23.6 24.7 15.6 61 4.8 N 4 6 2 3 1011.5 1011.5 0.0
23/10:00am 22.6 23.5 15.2 63 4.4 NNW 4 7 2 4 1011.7 1011.7 0.0
23/09:30am 21.1 22.3 15.9 72 3.1 ENE 4 7 2 4 1011.9 1011.9 0.0
23/09:00am 18.9 20.3 15.4 80 2.1 NNE 2 6 1 3 1012.0 1012.0 0.0
23/08:30am 16.9 17.6 14.5 86 1.4 NE 4 7 2 4 1012.2 1012.2 0.0
23/08:00am 15.5 16.8 14.2 92 0.7 CALM 0 0 0 0 1012.2 1012.2 0.0
23/07:30am 13.6 14.6 13.1 97 0.3 CALM 0 0 0 0 1012.0 1012.0 0.0
23/07:00am 11.2 11.5 10.9 98 0.2 CALM 0 2 0 1 1012.0 1012.0 0.0
23/06:30am 9.9 8.8 9.8 99 0.1 N 6 6 3 3 1012.0 1012.0 0.0
23/06:00am 8.6 7.1 8.5 99 0.0 N 6 9 3 5 1011.9 1011.9 0.0
23/05:30am 10.2 9.5 10.1 99 0.1 ENE 4 6 2 3 1011.5 1011.5 0.0
23/05:00am 10.8 11.0 10.5 98 0.2 CALM 0 2 0 1 1011.4 1011.4 0.0
23/04:30am 12.4 12.1 11.6 95 0.4 NNE 4 6 2 3 1011.3 1011.3 0.0
23/04:00am 12.5 12.0 11.9 96 0.3 ENE 6 9 3 5 1011.2 1011.2 0.0
23/03:30am 13.3 13.0 12.7 96 0.3 NE 6 7 3 4 1011.6 1011.6 0.0
23/03:00am 13.5 12.6 12.7 95 0.4 ENE 9 15 5 8 1011.6 1011.6 0.0
23/02:30am 13.3 12.4 12.7 96 0.3 E 9 11 5 6 1012.0 1012.0 0.0
23/02:00am 13.8 13.6 13.0 95 0.4 ESE 6 7 3 4 1012.2 1012.2 0.0
23/01:30am 13.3 12.0 12.5 95 0.4 E 11 13 6 7 1012.3 1012.3 0.0
23/01:00am 13.3 12.0 12.5 95 0.4 E 11 13 6 7 1012.6 1012.6 0.0
23/12:30am 13.6 12.7 12.7 94 0.5 E 9 13 5 7 1012.8 1012.8 0.0
23/12:00am 14.0 12.8 12.9 93 0.6 E 11 17 6 9 1013.2 1013.2 0.0
 
Date/Time
EDT
Temp
°C
App
Temp
°C
Dew
Point
°C
Rel
Hum
%
Delta-T
°C
Wind Press
QNH
hPa
Press
MSL
hPa
Rain since
9am
mm
Dir  Spd
km/h
Gust
km/h
Spd
kts
Gust
kts
22/11:30pm 14.8 13.0 13.3 91 0.8 E 15 19 8 10 1013.4 1013.4 0.0
22/11:00pm 15.5 13.4 13.7 89 1.0 E 17 24 9 13 1013.4 1013.4 0.0
22/10:30pm 15.9 13.5 13.7 87 1.2 E 19 24 10 13 1013.7 1013.7 0.0
22/10:00pm 16.1 14.8 13.8 86 1.3 E 13 19 7 10 1013.9 1013.9 0.0
22/09:30pm 16.7 14.8 14.2 85 1.4 E 17 26 9 14 1013.9 1013.9 0.0
22/09:00pm 16.7 15.6 14.3 86 1.4 E 13 20 7 11 1013.8 1013.8 0.0
22/08:30pm 17.4 16.8 14.7 84 1.6 E 11 17 6 9 1013.8 1013.8 0.0
22/08:00pm 18.2 17.6 14.7 80 2.0 E 11 17 6 9 1013.9 1013.9 0.0
22/07:30pm 19.1 18.0 15.2 78 2.3 E 15 22 8 12 1013.7 1013.7 0.0
22/07:00pm 20.2 18.2 15.0 72 3.1 E 19 28 10 15 1013.7 1013.7 0.0
22/06:30pm 21.0 18.2 14.2 65 4.0 E 22 32 12 17 1013.5 1013.5 0.0
22/06:00pm 21.7 18.7 14.8 65 4.1 ESE 24 30 13 16 1013.5 1013.5 0.0
22/05:30pm 22.5 19.6 15.1 63 4.4 ESE 24 32 13 17 1013.6 1013.6 0.0
22/05:00pm 23.3 20.6 14.6 58 5.1 ESE 22 28 12 15 1013.7 1013.7 0.0
22/04:30pm 23.7 20.6 14.4 56 5.5 E 24 32 13 17 1013.8 1013.8 0.0
22/04:00pm 24.1 21.6 15.1 57 5.4 E 22 28 12 15 1014.1 1014.1 0.0
22/03:30pm 24.8 22.5 14.6 53 6.1 ESE 20 26 11 14 1014.4 1014.4 0.0
22/03:00pm 24.7 23.0 16.2 59 5.2 ESE 20 28 11 15 1014.7 1014.7 0.0
22/02:30pm 25.2 23.5 15.8 56 5.7 ESE 19 28 10 15 1015.0 1015.0 0.0
22/02:00pm 25.4 23.7 16.3 57 5.6 ESE 20 30 11 16 1015.3 1015.3 0.0
22/01:30pm 25.5 24.2 17.2 60 5.2 ESE 20 26 11 14 1015.6 1015.6 0.0
22/01:00pm 25.9 25.2 16.5 56 5.8 ESE 15 20 8 11 1015.8 1015.8 0.0
22/12:30pm 26.2 25.9 16.4 54 6.0 SE 13 19 7 10 1016.2 1016.2 0.0
22/12:00pm 26.2 26.2 15.3 51 6.6 SE 9 15 5 8 1016.4 1016.4 0.0
22/11:30am 25.8 25.8 14.3 49 6.8 ENE 7 15 4 8 1016.5 1016.5 0.0
22/11:00am 25.0 24.4 13.5 48 6.7 ENE 9 15 5 8 1016.7 1016.7 0.0
22/10:30am 24.3 22.9 13.5 51 6.3 ENE 13 20 7 11 1016.9 1016.9 0.0
22/10:00am 23.3 21.5 13.2 53 5.8 E 15 20 8 11 1016.9 1016.9 0.0
22/09:30am 21.8 19.5 12.9 57 5.1 ENE 17 24 9 13 1017.0 1017.0 0.0
22/09:00am 20.2 18.3 12.9 63 4.1 ENE 15 19 8 10 1017.2 1017.2 0.0
22/08:30am 18.7 16.9 12.2 66 3.6 ENE 13 19 7 10 1017.2 1017.2 0.0
22/08:00am 17.6 16.1 13.1 75 2.5 ENE 13 17 7 9 1017.2 1017.2 0.0
22/07:30am 16.4 15.7 13.1 81 1.8 ENE 9 13 5 7 1017.2 1017.2 0.0
22/07:00am 14.2 13.6 11.7 85 1.3 ENE 6 7 3 4 1017.1 1017.1 0.0
22/06:30am 12.7 11.7 10.9 89 0.9 NNE 7 13 4 7 1017.1 1017.1 0.0
22/06:00am 10.7 9.7 10.2 97 0.3 ENE 6 9 3 5 1017.2 1017.2 0.0
22/05:30am 11.2 10.4 9.8 91 0.7 ENE 4 7 2 4 1017.1 1017.1 0.0
22/05:00am 11.7 10.4 9.9 89 0.9 NE 7 7 4 4 1016.9 1016.9 0.0
22/04:30am 12.2 11.0 10.3 88 1.0 E 7 9 4 5 1016.9 1016.9 0.0
22/04:00am 11.3 9.9 9.7 90 0.8 ESE 7 11 4 6 1016.9 1016.9 0.0
22/03:30am 11.2 10.6 10.4 95 0.4 ESE 4 6 2 3 1017.0 1017.0 0.0
22/03:00am 12.0 10.9 10.1 88 1.0 E 6 6 3 3 1017.1 1017.1 0.0
22/02:30am 11.2 11.4 10.4 95 0.4 CALM 0 0 0 0 1017.2 1017.2 0.0
22/02:00am 10.7 9.2 9.3 91 0.7 E 7 9 4 5 1017.5 1017.5 0.0
22/01:30am 12.7 13.3 11.9 95 0.4 CALM 0 4 0 2 1017.8 1017.8 0.0
22/01:00am 13.2 13.8 11.9 92 0.7 CALM 0 0 0 0 1017.9 1017.9 0.0
22/12:30am 14.0 13.8 11.9 87 1.1 E 4 4 2 2 1018.2 1018.2 0.0
22/12:00am 16.0 15.3 13.3 84 1.5 ENE 9 11 5 6 1018.4 1018.4 0.0
 
Date/Time
EDT
Temp
°C
App
Temp
°C
Dew
Point
°C
Rel
Hum
%
Delta-T
°C
Wind Press
QNH
hPa
Press
MSL
hPa
Rain since
9am
mm
Dir  Spd
km/h
Gust
km/h
Spd
kts
Gust
kts
21/11:30pm 16.1 15.6 13.8 86 1.3 ENE 9 15 5 8 1018.5 1018.5 0.0
21/11:00pm 15.3 15.0 13.3 88 1.1 ENE 7 11 4 6 1018.5 1018.5 0.0
21/10:30pm 15.7 16.8 14.6 93 0.6 W 2 4 1 2 1018.7 1018.7 0.0
21/10:00pm 16.1 15.9 14.6 91 0.9 E 9 11 5 6 1018.6 1018.6 0.0
21/09:30pm 17.3 17.1 15.8 91 0.9 E 11 17 6 9 1018.4 1018.4 0.0
21/09:00pm 17.4 18.0 15.2 87 1.3 SE 6 13 3 7 1018.4 1018.4 0.0
21/08:30pm 18.5 17.9 15.6 83 1.7 ESE 13 15 7 8 1018.2 1018.2 0.0
21/08:00pm 20.4 19.3 15.2 72 3.1 ESE 15 22 8 12 1018.2 1018.2 0.0
21/07:30pm 22.6 21.1 15.4 64 4.3 ESE 17 22 9 12 1018.2 1018.2 0.0
21/07:00pm 24.0 23.5 16.8 64 4.4 E 15 22 8 12 1018.1 1018.1 0.0
21/06:30pm 25.0 23.5 16.2 58 5.4 E 19 24 10 13 1017.9 1017.9 0.0
21/06:00pm 26.6 25.5 17.4 57 5.8 E 19 24 10 13 1018.0 1018.0 0.0
21/05:30pm 28.2 28.2 18.0 54 6.5 S 15 20 8 11 1017.9 1017.9 0.0
21/05:00pm 28.1 26.1 12.8 38 9.0 S 15 20 8 11 1018.2 1018.2 0.0
21/04:30pm 28.7 26.7 12.6 37 9.4 S 15 19 8 10 1018.3 1018.3 0.0
21/04:00pm 29.0 26.7 10.6 32 10.4 S 13 17 7 9 1018.5 1018.5 0.0
21/03:30pm 29.1 28.7 15.2 42 8.5 S 11 17 6 9 1018.7 1018.7 0.0
21/03:00pm 28.3 27.7 16.6 49 7.3 S 15 19 8 10 1019.0 1019.0 0.0
21/02:30pm 27.8 27.2 16.7 50 6.9 S 15 17 8 9 1019.3 1019.3 0.0
21/02:00pm 28.0 28.8 17.2 52 6.8 S 9 13 5 7 1019.5 1019.5 0.0
21/01:30pm 27.8 28.6 17.3 52 6.6 SSW 9 13 5 7 1019.8 1019.8 0.0
21/01:00pm 27.2 26.9 16.5 52 6.6 SSW 13 17 7 9 1020.1 1020.1 0.0
21/12:30pm 27.0 27.3 16.9 54 6.3 S 11 15 6 8 1020.3 1020.3 0.0
21/12:00pm 26.6 27.3 17.1 56 5.9 S 9 15 5 8 1020.5 1020.5 0.0
21/11:30am 26.1 27.5 17.7 60 5.3 SSW 7 11 4 6 1020.6 1020.6 0.0
21/11:00am 25.4 26.7 17.1 60 5.1 SSW 6 9 3 5 1020.8 1020.8 0.0
21/10:30am 24.8 25.7 16.0 58 5.4 SSW 6 7 3 4 1021.0 1021.0 0.0
21/10:00am 24.6 25.1 15.0 55 5.7 SSW 6 9 3 5 1021.1 1021.1 0.0
21/09:30am 23.1 24.7 16.9 68 3.8 S 4 6 2 3 1021.1 1021.1 0.0
21/09:00am 21.9 23.8 16.6 72 3.2 S 2 6 1 3 1021.2 1021.2 0.0
21/08:30am 20.3 21.8 15.7 75 2.7 NNE 2 4 1 2 1021.1 1021.1 0.0
21/08:00am 18.4 19.8 14.5 78 2.2 CALM 0 0 0 0 1020.9 1020.9 0.0
21/07:30am 17.1 17.9 13.6 80 2.0 NNE 2 2 1 1 1020.7 1020.7 0.0
21/07:00am 14.2 15.2 13.2 94 0.6 CALM 0 0 0 0 1020.4 1020.4 0.0
21/06:30am 11.8 12.1 10.9 94 0.5 CALM 0 2 0 1 1020.3 1020.3 0.0
21/06:00am 11.6 11.5 10.8 95 0.4 E 2 4 1 2 1020.0 1020.0 0.0
21/05:30am 13.0 13.3 12.1 94 0.5 E 2 4 1 2 1019.5 1019.5 0.0
21/05:00am 13.2 13.3 12.6 96 0.3 NE 4 4 2 2 1019.5 1019.5 0.0
21/04:30am 13.1 12.8 12.6 97 0.3 E 6 9 3 5 1019.5 1019.5 0.0
21/04:00am 12.3 11.5 11.7 96 0.3 E 7 9 4 5 1019.6 1019.6 0.0
21/03:30am 13.5 13.7 12.9 96 0.3 ENE 4 6 2 3 1019.8 1019.8 0.0
21/03:00am 14.0 14.2 13.2 95 0.4 ENE 4 4 2 2 1019.9 1019.9 0.0
21/02:30am 14.3 14.9 13.2 93 0.6 ENE 2 4 1 2 1020.0 1020.0 0.0
21/02:00am 14.9 14.4 13.8 93 0.6 E 9 11 5 6 1020.2 1020.2 0.0
21/01:30am 15.0 14.2 14.0 94 0.6 E 11 15 6 8 1020.4 1020.4 0.0
21/01:00am 14.6 14.0 13.6 94 0.6 ESE 9 9 5 5 1020.8 1020.8 0.0
21/12:30am 14.6 14.5 13.3 92 0.7 ESE 6 7 3 4 1021.0 1021.0 0.0
21/12:00am 16.1 15.0 14.3 89 1.0 E 13 17 7 9 1021.2 1021.2 0.0
 
Date/Time
EDT
Temp
°C
App
Temp
°C
Dew
Point
°C
Rel
Hum
%
Delta-T
°C
Wind Press
QNH
hPa
Press
MSL
hPa
Rain since
9am
mm
Dir  Spd
km/h
Gust
km/h
Spd
kts
Gust
kts
20/11:30pm 15.9 15.5 14.1 89 1.0 E 9 15 5 8 1021.4 1021.4 0.0
20/11:00pm 16.0 15.7 14.5 91 0.9 E 9 13 5 7 1021.6 1021.6 0.0
20/10:30pm 16.2 16.1 14.9 92 0.7 ESE 9 13 5 7 1021.7 1021.7 0.0
20/10:00pm 16.6 16.6 15.3 92 0.8 ESE 9 11 5 6 1021.8 1021.8 0.0

Other Formats:

Comma delimited format used in spreadsheet applications
http://www.bom.gov.au/fwo/IDV60801/IDV60801.94886.axf

JavaScript Object Notation format (JSON) in row-major order
http://www.bom.gov.au/fwo/IDV60801/IDV60801.94886.json